sensor_id;sensor_type;location;lat;lon;timestamp;temperature;humidity
22682;DHT22;11508;50.856;4.380;2022-09-09T00:02:08;15.90;99.90
22682;DHT22;11508;50.856;4.380;2022-09-09T00:04:34;15.90;99.90
22682;DHT22;11508;50.856;4.380;2022-09-09T00:10:01;15.90;99.90
22682;DHT22;11508;50.856;4.380;2022-09-09T00:12:41;15.80;99.90
22682;DHT22;11508;50.856;4.380;2022-09-09T00:15:13;15.80;99.90
22682;DHT22;11508;50.856;4.380;2022-09-09T00:17:58;15.80;99.90
22682;DHT22;11508;50.856;4.380;2022-09-09T00:28:29;15.70;99.90
22682;DHT22;11508;50.856;4.380;2022-09-09T00:31:07;15.80;99.90
22682;DHT22;11508;50.856;4.380;2022-09-09T00:33:36;15.80;99.90
22682;DHT22;11508;50.856;4.380;2022-09-09T00:36:13;15.80;99.90
22682;DHT22;11508;50.856;4.380;2022-09-09T00:38:45;15.80;99.90
22682;DHT22;11508;50.856;4.380;2022-09-09T00:55:08;15.90;99.90
22682;DHT22;11508;50.856;4.380;2022-09-09T00:57:37;16.00;99.90
22682;DHT22;11508;50.856;4.380;2022-09-09T01:08:01;15.90;99.90
22682;DHT22;11508;50.856;4.380;2022-09-09T01:10:47;16.00;99.90
22682;DHT22;11508;50.856;4.380;2022-09-09T01:15:50;16.00;99.90
22682;DHT22;11508;50.856;4.380;2022-09-09T01:18:21;16.00;99.90
22682;DHT22;11508;50.856;4.380;2022-09-09T01:23:27;15.90;99.90
22682;DHT22;11508;50.856;4.380;2022-09-09T01:28:45;15.90;99.90
22682;DHT22;11508;50.856;4.380;2022-09-09T01:31:16;15.90;99.90
22682;DHT22;11508;50.856;4.380;2022-09-09T01:33:43;15.90;99.90
22682;DHT22;11508;50.856;4.380;2022-09-09T01:38:37;15.90;99.90
22682;DHT22;11508;50.856;4.380;2022-09-09T01:41:03;15.80;99.90
22682;DHT22;11508;50.856;4.380;2022-09-09T01:43:30;15.70;99.90
22682;DHT22;11508;50.856;4.380;2022-09-09T01:45:58;15.80;99.90
22682;DHT22;11508;50.856;4.380;2022-09-09T01:48:25;15.80;99.90
22682;DHT22;11508;50.856;4.380;2022-09-09T01:50:51;15.90;99.90
22682;DHT22;11508;50.856;4.380;2022-09-09T01:53:18;15.80;99.90
22682;DHT22;11508;50.856;4.380;2022-09-09T02:01:13;15.80;99.90
22682;DHT22;11508;50.856;4.380;2022-09-09T02:03:44;15.80;99.90
22682;DHT22;11508;50.856;4.380;2022-09-09T02:08:49;15.80;99.90
22682;DHT22;11508;50.856;4.380;2022-09-09T02:11:20;15.80;99.90
22682;DHT22;11508;50.856;4.380;2022-09-09T02:13:48;15.80;99.90
22682;DHT22;11508;50.856;4.380;2022-09-09T02:18:50;15.80;99.90
22682;DHT22;11508;50.856;4.380;2022-09-09T02:21:17;15.90;99.90
22682;DHT22;11508;50.856;4.380;2022-09-09T02:23:44;15.90;99.90
22682;DHT22;11508;50.856;4.380;2022-09-09T02:26:13;15.90;99.90
22682;DHT22;11508;50.856;4.380;2022-09-09T02:28:46;15.90;99.90
22682;DHT22;11508;50.856;4.380;2022-09-09T02:31:13;15.80;99.90
22682;DHT22;11508;50.856;4.380;2022-09-09T02:33:45;15.90;99.90
22682;DHT22;11508;50.856;4.380;2022-09-09T02:36:14;15.90;99.90
22682;DHT22;11508;50.856;4.380;2022-09-09T02:38:46;15.80;99.90
22682;DHT22;11508;50.856;4.380;2022-09-09T02:41:20;15.80;99.90
22682;DHT22;11508;50.856;4.380;2022-09-09T02:43:48;15.90;99.90
22682;DHT22;11508;50.856;4.380;2022-09-09T02:46:27;15.90;99.90
22682;DHT22;11508;50.856;4.380;2022-09-09T02:48:59;15.90;99.90
22682;DHT22;11508;50.856;4.380;2022-09-09T02:54:26;15.90;99.90
22682;DHT22;11508;50.856;4.380;2022-09-09T02:56:59;15.80;99.90
22682;DHT22;11508;50.856;4.380;2022-09-09T02:59:27;15.90;99.90
22682;DHT22;11508;50.856;4.380;2022-09-09T03:01:53;15.90;99.90
22682;DHT22;11508;50.856;4.380;2022-09-09T03:04:18;15.80;99.90
22682;DHT22;11508;50.856;4.380;2022-09-09T03:06:44;15.80;99.90
22682;DHT22;11508;50.856;4.380;2022-09-09T03:09:10;15.90;99.90
22682;DHT22;11508;50.856;4.380;2022-09-09T03:11:36;15.80;99.90
22682;DHT22;11508;50.856;4.380;2022-09-09T03:14:04;15.80;99.90
22682;DHT22;11508;50.856;4.380;2022-09-09T03:16:29;15.90;99.90
22682;DHT22;11508;50.856;4.380;2022-09-09T03:18:55;15.80;99.90
22682;DHT22;11508;50.856;4.380;2022-09-09T03:21:21;15.80;99.90
22682;DHT22;11508;50.856;4.380;2022-09-09T03:23:47;15.80;99.90
22682;DHT22;11508;50.856;4.380;2022-09-09T03:26:13;15.80;99.90
22682;DHT22;11508;50.856;4.380;2022-09-09T03:28:41;15.80;99.90
22682;DHT22;11508;50.856;4.380;2022-09-09T03:31:07;15.80;99.90
22682;DHT22;11508;50.856;4.380;2022-09-09T03:33:36;15.80;99.90
22682;DHT22;11508;50.856;4.380;2022-09-09T03:36:03;15.80;99.90
22682;DHT22;11508;50.856;4.380;2022-09-09T03:38:29;15.70;99.90
22682;DHT22;11508;50.856;4.380;2022-09-09T03:40:56;15.70;99.90
22682;DHT22;11508;50.856;4.380;2022-09-09T03:43:23;15.70;99.90
22682;DHT22;11508;50.856;4.380;2022-09-09T03:45:49;15.70;99.90
22682;DHT22;11508;50.856;4.380;2022-09-09T03:48:17;15.70;99.90
22682;DHT22;11508;50.856;4.380;2022-09-09T03:50:45;15.70;99.90
22682;DHT22;11508;50.856;4.380;2022-09-09T03:53:11;15.60;99.90
22682;DHT22;11508;50.856;4.380;2022-09-09T03:55:37;15.60;99.90
22682;DHT22;11508;50.856;4.380;2022-09-09T03:58:02;15.60;99.90
22682;DHT22;11508;50.856;4.380;2022-09-09T04:00:29;15.60;99.90
22682;DHT22;11508;50.856;4.380;2022-09-09T04:02:55;15.60;99.90
22682;DHT22;11508;50.856;4.380;2022-09-09T04:05:22;15.60;99.90
22682;DHT22;11508;50.856;4.380;2022-09-09T04:07:48;15.60;99.90
22682;DHT22;11508;50.856;4.380;2022-09-09T04:10:13;15.60;99.90
22682;DHT22;11508;50.856;4.380;2022-09-09T04:12:41;15.60;99.90
22682;DHT22;11508;50.856;4.380;2022-09-09T04:15:07;15.70;99.90
22682;DHT22;11508;50.856;4.380;2022-09-09T04:17:33;15.70;99.90
22682;DHT22;11508;50.856;4.380;2022-09-09T04:19:59;15.80;99.90
22682;DHT22;11508;50.856;4.380;2022-09-09T04:22:24;15.80;99.90
22682;DHT22;11508;50.856;4.380;2022-09-09T04:24:50;15.70;99.90
22682;DHT22;11508;50.856;4.380;2022-09-09T04:27:16;15.70;99.90
22682;DHT22;11508;50.856;4.380;2022-09-09T04:29:41;15.70;99.90
22682;DHT22;11508;50.856;4.380;2022-09-09T04:32:07;15.60;99.90
22682;DHT22;11508;50.856;4.380;2022-09-09T04:34:33;15.70;99.90
22682;DHT22;11508;50.856;4.380;2022-09-09T04:36:58;15.60;99.90
22682;DHT22;11508;50.856;4.380;2022-09-09T04:39:25;15.60;99.90
22682;DHT22;11508;50.856;4.380;2022-09-09T04:41:51;15.50;99.90
22682;DHT22;11508;50.856;4.380;2022-09-09T04:44:17;15.50;99.90
22682;DHT22;11508;50.856;4.380;2022-09-09T04:46:42;15.60;99.90
22682;DHT22;11508;50.856;4.380;2022-09-09T04:49:08;15.60;99.90
22682;DHT22;11508;50.856;4.380;2022-09-09T04:51:34;15.60;99.90
22682;DHT22;11508;50.856;4.380;2022-09-09T04:54:00;15.60;99.90
22682;DHT22;11508;50.856;4.380;2022-09-09T04:56:25;15.60;99.90
22682;DHT22;11508;50.856;4.380;2022-09-09T04:58:54;15.60;99.90
22682;DHT22;11508;50.856;4.380;2022-09-09T05:01:21;15.60;99.90
22682;DHT22;11508;50.856;4.380;2022-09-09T05:03:47;15.60;99.90
22682;DHT22;11508;50.856;4.380;2022-09-09T05:06:15;15.60;99.90
22682;DHT22;11508;50.856;4.380;2022-09-09T05:08:42;15.60;99.90
22682;DHT22;11508;50.856;4.380;2022-09-09T05:11:22;15.60;99.90
22682;DHT22;11508;50.856;4.380;2022-09-09T05:13:50;15.60;99.90
22682;DHT22;11508;50.856;4.380;2022-09-09T05:16:16;15.60;99.90
22682;DHT22;11508;50.856;4.380;2022-09-09T05:18:43;15.60;99.90
22682;DHT22;11508;50.856;4.380;2022-09-09T05:21:10;15.70;99.90
22682;DHT22;11508;50.856;4.380;2022-09-09T05:23:37;15.70;99.90
22682;DHT22;11508;50.856;4.380;2022-09-09T05:26:04;15.70;99.90
22682;DHT22;11508;50.856;4.380;2022-09-09T05:28:30;15.70;99.90
22682;DHT22;11508;50.856;4.380;2022-09-09T05:31:00;15.70;99.90
22682;DHT22;11508;50.856;4.380;2022-09-09T05:33:29;15.80;99.90
22682;DHT22;11508;50.856;4.380;2022-09-09T05:36:00;15.80;99.90
22682;DHT22;11508;50.856;4.380;2022-09-09T05:38:27;15.80;99.90
22682;DHT22;11508;50.856;4.380;2022-09-09T05:40:53;15.90;99.90
22682;DHT22;11508;50.856;4.380;2022-09-09T05:43:19;15.90;99.90
22682;DHT22;11508;50.856;4.380;2022-09-09T05:45:47;15.90;99.90
22682;DHT22;11508;50.856;4.380;2022-09-09T05:48:14;15.90;99.90
22682;DHT22;11508;50.856;4.380;2022-09-09T05:50:43;16.00;99.90
22682;DHT22;11508;50.856;4.380;2022-09-09T05:53:10;15.90;99.90
22682;DHT22;11508;50.856;4.380;2022-09-09T05:55:36;15.90;99.90
22682;DHT22;11508;50.856;4.380;2022-09-09T05:58:01;15.90;99.90
22682;DHT22;11508;50.856;4.380;2022-09-09T06:00:28;15.90;99.90
22682;DHT22;11508;50.856;4.380;2022-09-09T06:02:54;15.90;99.90
22682;DHT22;11508;50.856;4.380;2022-09-09T06:05:20;15.80;99.90
22682;DHT22;11508;50.856;4.380;2022-09-09T06:07:48;15.80;99.90
22682;DHT22;11508;50.856;4.380;2022-09-09T06:10:17;15.90;99.90
22682;DHT22;11508;50.856;4.380;2022-09-09T06:12:43;15.90;99.90
22682;DHT22;11508;50.856;4.380;2022-09-09T06:15:09;15.90;99.90
22682;DHT22;11508;50.856;4.380;2022-09-09T06:17:35;16.00;99.90
22682;DHT22;11508;50.856;4.380;2022-09-09T06:20:00;16.10;99.90
22682;DHT22;11508;50.856;4.380;2022-09-09T06:22:26;16.10;99.90
22682;DHT22;11508;50.856;4.380;2022-09-09T06:24:52;16.20;99.90
22682;DHT22;11508;50.856;4.380;2022-09-09T06:27:18;16.20;99.90
22682;DHT22;11508;50.856;4.380;2022-09-09T06:29:44;16.20;99.90
22682;DHT22;11508;50.856;4.380;2022-09-09T06:32:10;16.20;99.90
22682;DHT22;11508;50.856;4.380;2022-09-09T06:34:35;16.20;99.90
22682;DHT22;11508;50.856;4.380;2022-09-09T06:37:02;16.30;99.90
22682;DHT22;11508;50.856;4.380;2022-09-09T06:39:28;16.40;99.90
22682;DHT22;11508;50.856;4.380;2022-09-09T06:41:53;16.30;99.90
22682;DHT22;11508;50.856;4.380;2022-09-09T06:44:19;16.30;99.90
22682;DHT22;11508;50.856;4.380;2022-09-09T06:46:45;16.20;99.90
22682;DHT22;11508;50.856;4.380;2022-09-09T06:49:13;16.20;99.90
22682;DHT22;11508;50.856;4.380;2022-09-09T06:51:39;16.20;99.90
22682;DHT22;11508;50.856;4.380;2022-09-09T06:54:08;16.30;99.90
22682;DHT22;11508;50.856;4.380;2022-09-09T06:56:35;16.30;99.90
22682;DHT22;11508;50.856;4.380;2022-09-09T06:59:03;16.40;99.90
22682;DHT22;11508;50.856;4.380;2022-09-09T07:01:32;16.40;99.90
22682;DHT22;11508;50.856;4.380;2022-09-09T07:03:59;16.60;99.90
22682;DHT22;11508;50.856;4.380;2022-09-09T07:06:37;16.60;99.90
22682;DHT22;11508;50.856;4.380;2022-09-09T07:09:05;16.40;99.90
22682;DHT22;11508;50.856;4.380;2022-09-09T07:11:37;16.50;99.90
22682;DHT22;11508;50.856;4.380;2022-09-09T07:14:04;16.50;99.90
22682;DHT22;11508;50.856;4.380;2022-09-09T07:16:29;16.60;99.90
22682;DHT22;11508;50.856;4.380;2022-09-09T07:18:57;16.70;99.90
22682;DHT22;11508;50.856;4.380;2022-09-09T07:21:26;16.70;99.90
22682;DHT22;11508;50.856;4.380;2022-09-09T07:23:53;16.70;99.90
22682;DHT22;11508;50.856;4.380;2022-09-09T07:26:21;16.70;99.90
22682;DHT22;11508;50.856;4.380;2022-09-09T07:28:48;16.70;99.90
22682;DHT22;11508;50.856;4.380;2022-09-09T07:31:22;16.70;99.90
22682;DHT22;11508;50.856;4.380;2022-09-09T07:33:48;16.70;99.90
22682;DHT22;11508;50.856;4.380;2022-09-09T07:36:26;16.60;99.90
22682;DHT22;11508;50.856;4.380;2022-09-09T07:38:58;16.60;99.90
22682;DHT22;11508;50.856;4.380;2022-09-09T07:41:31;16.60;99.90
22682;DHT22;11508;50.856;4.380;2022-09-09T07:43:59;16.60;99.90
22682;DHT22;11508;50.856;4.380;2022-09-09T07:46:26;16.50;99.90
22682;DHT22;11508;50.856;4.380;2022-09-09T07:48:54;16.50;99.90
22682;DHT22;11508;50.856;4.380;2022-09-09T07:51:23;16.50;99.90
22682;DHT22;11508;50.856;4.380;2022-09-09T07:53:58;16.50;99.90
22682;DHT22;11508;50.856;4.380;2022-09-09T07:56:25;16.50;99.90
22682;DHT22;11508;50.856;4.380;2022-09-09T07:58:52;16.50;99.90
22682;DHT22;11508;50.856;4.380;2022-09-09T08:01:34;16.50;99.90
22682;DHT22;11508;50.856;4.380;2022-09-09T08:04:03;16.60;99.90
22682;DHT22;11508;50.856;4.380;2022-09-09T08:06:32;17.00;99.90
22682;DHT22;11508;50.856;4.380;2022-09-09T08:08:59;16.90;99.90
22682;DHT22;11508;50.856;4.380;2022-09-09T08:11:26;16.90;99.90
22682;DHT22;11508;50.856;4.380;2022-09-09T08:13:53;17.00;99.90
22682;DHT22;11508;50.856;4.380;2022-09-09T08:16:22;17.20;99.90
22682;DHT22;11508;50.856;4.380;2022-09-09T08:18:49;17.30;99.90
22682;DHT22;11508;50.856;4.380;2022-09-09T08:21:17;17.40;99.90
22682;DHT22;11508;50.856;4.380;2022-09-09T08:23:45;17.40;99.90
22682;DHT22;11508;50.856;4.380;2022-09-09T08:26:19;17.40;99.90
22682;DHT22;11508;50.856;4.380;2022-09-09T08:28:53;17.20;99.90
22682;DHT22;11508;50.856;4.380;2022-09-09T08:31:22;17.20;99.90
22682;DHT22;11508;50.856;4.380;2022-09-09T08:33:48;17.20;99.90
22682;DHT22;11508;50.856;4.380;2022-09-09T08:36:16;17.30;99.90
22682;DHT22;11508;50.856;4.380;2022-09-09T08:38:43;17.20;99.90
22682;DHT22;11508;50.856;4.380;2022-09-09T08:52:03;16.90;99.90
22682;DHT22;11508;50.856;4.380;2022-09-09T08:54:34;16.80;99.90
22682;DHT22;11508;50.856;4.380;2022-09-09T08:57:03;16.80;99.90
22682;DHT22;11508;50.856;4.380;2022-09-09T08:59:29;16.90;99.90
22682;DHT22;11508;50.856;4.380;2022-09-09T09:10:38;16.80;99.90
22682;DHT22;11508;50.856;4.380;2022-09-09T09:18:51;16.90;99.90
22682;DHT22;11508;50.856;4.380;2022-09-09T09:24:11;16.60;99.90
22682;DHT22;11508;50.856;4.380;2022-09-09T09:26:43;16.60;99.90
22682;DHT22;11508;50.856;4.380;2022-09-09T09:29:20;16.60;99.90
22682;DHT22;11508;50.856;4.380;2022-09-09T09:31:57;16.60;99.90
22682;DHT22;11508;50.856;4.380;2022-09-09T09:34:26;16.70;99.90
22682;DHT22;11508;50.856;4.380;2022-09-09T09:36:55;16.60;99.90
22682;DHT22;11508;50.856;4.380;2022-09-09T09:39:32;16.60;99.90
22682;DHT22;11508;50.856;4.380;2022-09-09T09:42:23;16.50;99.90
22682;DHT22;11508;50.856;4.380;2022-09-09T09:44:50;16.40;99.90
22682;DHT22;11508;50.856;4.380;2022-09-09T09:47:21;16.30;99.90
22682;DHT22;11508;50.856;4.380;2022-09-09T09:49:55;16.40;99.90
22682;DHT22;11508;50.856;4.380;2022-09-09T09:52:23;16.40;99.90
22682;DHT22;11508;50.856;4.380;2022-09-09T09:54:50;16.50;99.90
22682;DHT22;11508;50.856;4.380;2022-09-09T09:57:16;16.60;99.90
22682;DHT22;11508;50.856;4.380;2022-09-09T09:59:46;16.60;99.90
22682;DHT22;11508;50.856;4.380;2022-09-09T10:04:38;16.70;99.90
22682;DHT22;11508;50.856;4.380;2022-09-09T10:07:19;16.70;99.90
22682;DHT22;11508;50.856;4.380;2022-09-09T10:09:46;16.80;99.90
22682;DHT22;11508;50.856;4.380;2022-09-09T10:21:20;16.70;99.90
22682;DHT22;11508;50.856;4.380;2022-09-09T10:29:35;16.90;99.90
22682;DHT22;11508;50.856;4.380;2022-09-09T10:35:22;17.00;99.90
22682;DHT22;11508;50.856;4.380;2022-09-09T10:42:38;18.00;99.90
22682;DHT22;11508;50.856;4.380;2022-09-09T10:46:04;18.20;99.90
22682;DHT22;11508;50.856;4.380;2022-09-09T10:53:35;18.30;99.90
22682;DHT22;11508;50.856;4.380;2022-09-09T10:56:11;18.50;99.90
22682;DHT22;11508;50.856;4.380;2022-09-09T11:07:10;18.40;99.90
22682;DHT22;11508;50.856;4.380;2022-09-09T11:09:45;18.80;99.90
22682;DHT22;11508;50.856;4.380;2022-09-09T11:12:18;19.00;99.90
22682;DHT22;11508;50.856;4.380;2022-09-09T11:14:50;19.10;99.90
22682;DHT22;11508;50.856;4.380;2022-09-09T11:17:23;18.80;99.90
22682;DHT22;11508;50.856;4.380;2022-09-09T11:19:50;18.60;99.90
22682;DHT22;11508;50.856;4.380;2022-09-09T11:22:21;18.40;99.90
22682;DHT22;11508;50.856;4.380;2022-09-09T11:30:43;18.20;99.90
22682;DHT22;11508;50.856;4.380;2022-09-09T11:36:12;18.10;99.90
22682;DHT22;11508;50.856;4.380;2022-09-09T11:41:38;18.30;99.90
22682;DHT22;11508;50.856;4.380;2022-09-09T11:44:18;18.20;99.90
22682;DHT22;11508;50.856;4.380;2022-09-09T11:46:49;18.20;99.90
22682;DHT22;11508;50.856;4.380;2022-09-09T11:49:39;18.20;99.90
22682;DHT22;11508;50.856;4.380;2022-09-09T11:52:24;18.00;99.90
22682;DHT22;11508;50.856;4.380;2022-09-09T11:54:54;18.10;99.90
22682;DHT22;11508;50.856;4.380;2022-09-09T11:57:32;18.10;99.90
22682;DHT22;11508;50.856;4.380;2022-09-09T12:00:00;18.20;99.90
22682;DHT22;11508;50.856;4.380;2022-09-09T12:02:28;18.10;99.90
22682;DHT22;11508;50.856;4.380;2022-09-09T12:05:06;18.30;99.90
22682;DHT22;11508;50.856;4.380;2022-09-09T12:07:51;18.30;99.90
22682;DHT22;11508;50.856;4.380;2022-09-09T12:12:44;18.20;99.90
22682;DHT22;11508;50.856;4.380;2022-09-09T12:17:50;18.30;99.90
22682;DHT22;11508;50.856;4.380;2022-09-09T12:20:30;18.30;99.90
22682;DHT22;11508;50.856;4.380;2022-09-09T12:26:25;18.10;99.90
22682;DHT22;11508;50.856;4.380;2022-09-09T12:34:44;18.50;99.90
22682;DHT22;11508;50.856;4.380;2022-09-09T12:37:16;18.70;99.90
22682;DHT22;11508;50.856;4.380;2022-09-09T12:39:59;18.60;99.90
22682;DHT22;11508;50.856;4.380;2022-09-09T12:42:26;18.50;99.90
22682;DHT22;11508;50.856;4.380;2022-09-09T12:45:00;18.60;99.90
22682;DHT22;11508;50.856;4.380;2022-09-09T12:47:38;18.80;99.90
22682;DHT22;11508;50.856;4.380;2022-09-09T12:50:25;18.80;99.90
22682;DHT22;11508;50.856;4.380;2022-09-09T12:52:54;18.90;99.90
22682;DHT22;11508;50.856;4.380;2022-09-09T12:55:29;19.10;99.90
22682;DHT22;11508;50.856;4.380;2022-09-09T12:57:57;18.90;99.90
22682;DHT22;11508;50.856;4.380;2022-09-09T13:00:25;19.00;99.90
22682;DHT22;11508;50.856;4.380;2022-09-09T13:02:59;19.20;99.90
22682;DHT22;11508;50.856;4.380;2022-09-09T13:05:35;19.30;98.60
22682;DHT22;11508;50.856;4.380;2022-09-09T13:08:06;19.20;97.80
22682;DHT22;11508;50.856;4.380;2022-09-09T13:10:48;19.30;98.00
22682;DHT22;11508;50.856;4.380;2022-09-09T13:13:20;19.30;96.50
22682;DHT22;11508;50.856;4.380;2022-09-09T13:15:55;19.20;98.70
22682;DHT22;11508;50.856;4.380;2022-09-09T13:18:25;19.10;99.60
22682;DHT22;11508;50.856;4.380;2022-09-09T13:20:52;19.10;99.90
22682;DHT22;11508;50.856;4.380;2022-09-09T13:23:20;19.00;99.90
22682;DHT22;11508;50.856;4.380;2022-09-09T13:26:00;19.10;99.90
22682;DHT22;11508;50.856;4.380;2022-09-09T13:28:30;19.10;99.90
22682;DHT22;11508;50.856;4.380;2022-09-09T13:31:20;19.10;99.90
22682;DHT22;11508;50.856;4.380;2022-09-09T13:33:46;19.10;99.90
22682;DHT22;11508;50.856;4.380;2022-09-09T13:36:13;19.20;99.40
22682;DHT22;11508;50.856;4.380;2022-09-09T13:41:22;19.50;95.50
22682;DHT22;11508;50.856;4.380;2022-09-09T13:43:52;19.60;94.20
22682;DHT22;11508;50.856;4.380;2022-09-09T13:46:40;19.70;92.90
22682;DHT22;11508;50.856;4.380;2022-09-09T13:54:04;20.00;86.40
22682;DHT22;11508;50.856;4.380;2022-09-09T13:56:34;20.30;84.20
22682;DHT22;11508;50.856;4.380;2022-09-09T13:59:01;20.50;79.50
22682;DHT22;11508;50.856;4.380;2022-09-09T14:01:27;20.40;76.70
22682;DHT22;11508;50.856;4.380;2022-09-09T14:03:53;20.00;82.40
22682;DHT22;11508;50.856;4.380;2022-09-09T14:06:19;19.90;87.10
22682;DHT22;11508;50.856;4.380;2022-09-09T14:08:51;20.00;84.50
22682;DHT22;11508;50.856;4.380;2022-09-09T14:11:18;20.00;85.40
22682;DHT22;11508;50.856;4.380;2022-09-09T14:13:44;19.80;90.60
22682;DHT22;11508;50.856;4.380;2022-09-09T14:16:10;19.80;91.30
22682;DHT22;11508;50.856;4.380;2022-09-09T14:18:36;19.70;90.70
22682;DHT22;11508;50.856;4.380;2022-09-09T14:21:03;19.70;90.90
22682;DHT22;11508;50.856;4.380;2022-09-09T14:23:29;19.70;92.40
22682;DHT22;11508;50.856;4.380;2022-09-09T14:25:56;19.70;93.00
22682;DHT22;11508;50.856;4.380;2022-09-09T14:28:22;19.50;96.00
22682;DHT22;11508;50.856;4.380;2022-09-09T14:30:48;19.50;96.10
22682;DHT22;11508;50.856;4.380;2022-09-09T14:33:15;19.40;96.00
22682;DHT22;11508;50.856;4.380;2022-09-09T14:35:42;19.40;95.60
22682;DHT22;11508;50.856;4.380;2022-09-09T14:38:08;19.50;94.60
22682;DHT22;11508;50.856;4.380;2022-09-09T14:40:36;19.50;94.50
22682;DHT22;11508;50.856;4.380;2022-09-09T14:43:02;19.60;94.10
22682;DHT22;11508;50.856;4.380;2022-09-09T14:45:28;19.60;93.60
22682;DHT22;11508;50.856;4.380;2022-09-09T14:47:55;19.60;94.30
22682;DHT22;11508;50.856;4.380;2022-09-09T14:50:21;19.70;94.90
22682;DHT22;11508;50.856;4.380;2022-09-09T14:52:48;19.80;93.50
22682;DHT22;11508;50.856;4.380;2022-09-09T14:55:14;19.90;92.10
22682;DHT22;11508;50.856;4.380;2022-09-09T14:57:41;20.00;90.00
22682;DHT22;11508;50.856;4.380;2022-09-09T15:00:08;20.10;87.20
22682;DHT22;11508;50.856;4.380;2022-09-09T15:02:34;20.20;85.20
22682;DHT22;11508;50.856;4.380;2022-09-09T15:05:00;20.20;79.80
22682;DHT22;11508;50.856;4.380;2022-09-09T15:07:27;20.20;76.30
22682;DHT22;11508;50.856;4.380;2022-09-09T15:10:06;20.10;80.90
22682;DHT22;11508;50.856;4.380;2022-09-09T15:12:35;20.20;79.10
22682;DHT22;11508;50.856;4.380;2022-09-09T15:15:01;20.30;71.70
22682;DHT22;11508;50.856;4.380;2022-09-09T15:17:28;20.00;75.50
22682;DHT22;11508;50.856;4.380;2022-09-09T15:19:53;19.90;79.40
22682;DHT22;11508;50.856;4.380;2022-09-09T15:22:20;19.90;81.20
22682;DHT22;11508;50.856;4.380;2022-09-09T15:24:46;19.80;82.00
22682;DHT22;11508;50.856;4.380;2022-09-09T15:27:12;19.80;83.90
22682;DHT22;11508;50.856;4.380;2022-09-09T15:29:40;19.90;82.80
22682;DHT22;11508;50.856;4.380;2022-09-09T15:32:06;19.80;85.40
22682;DHT22;11508;50.856;4.380;2022-09-09T15:34:32;19.80;86.20
22682;DHT22;11508;50.856;4.380;2022-09-09T15:36:58;19.80;80.80
22682;DHT22;11508;50.856;4.380;2022-09-09T15:39:25;19.70;81.90
22682;DHT22;11508;50.856;4.380;2022-09-09T15:41:51;19.60;83.10
22682;DHT22;11508;50.856;4.380;2022-09-09T15:44:17;19.60;87.40
22682;DHT22;11508;50.856;4.380;2022-09-09T15:46:52;19.60;86.80
22682;DHT22;11508;50.856;4.380;2022-09-09T15:49:24;19.70;85.90
22682;DHT22;11508;50.856;4.380;2022-09-09T15:51:58;19.70;86.80
22682;DHT22;11508;50.856;4.380;2022-09-09T15:54:32;19.70;83.80
22682;DHT22;11508;50.856;4.380;2022-09-09T15:57:00;19.60;90.40
22682;DHT22;11508;50.856;4.380;2022-09-09T15:59:28;19.60;94.40
22682;DHT22;11508;50.856;4.380;2022-09-09T16:01:56;19.70;94.40
22682;DHT22;11508;50.856;4.380;2022-09-09T16:04:23;19.80;94.40
22682;DHT22;11508;50.856;4.380;2022-09-09T16:06:54;19.80;93.20
22682;DHT22;11508;50.856;4.380;2022-09-09T16:09:21;19.70;94.50
22682;DHT22;11508;50.856;4.380;2022-09-09T16:11:47;19.60;94.90
22682;DHT22;11508;50.856;4.380;2022-09-09T16:14:14;19.60;94.60
22682;DHT22;11508;50.856;4.380;2022-09-09T16:16:41;19.40;96.40
22682;DHT22;11508;50.856;4.380;2022-09-09T16:19:09;19.50;96.80
22682;DHT22;11508;50.856;4.380;2022-09-09T16:21:41;19.40;96.90
22682;DHT22;11508;50.856;4.380;2022-09-09T16:24:10;19.40;97.80
22682;DHT22;11508;50.856;4.380;2022-09-09T16:26:38;19.30;97.90
22682;DHT22;11508;50.856;4.380;2022-09-09T16:29:05;19.30;99.30
22682;DHT22;11508;50.856;4.380;2022-09-09T16:31:31;19.20;97.60
22682;DHT22;11508;50.856;4.380;2022-09-09T16:34:00;19.10;98.70
22682;DHT22;11508;50.856;4.380;2022-09-09T16:36:31;18.70;92.00
22682;DHT22;11508;50.856;4.380;2022-09-09T16:39:00;18.50;96.10
22682;DHT22;11508;50.856;4.380;2022-09-09T16:41:27;18.40;98.30
22682;DHT22;11508;50.856;4.380;2022-09-09T16:43:58;18.40;99.90
22682;DHT22;11508;50.856;4.380;2022-09-09T16:46:26;18.50;99.90
22682;DHT22;11508;50.856;4.380;2022-09-09T16:48:53;18.40;99.90
22682;DHT22;11508;50.856;4.380;2022-09-09T16:51:22;18.40;99.90
22682;DHT22;11508;50.856;4.380;2022-09-09T16:53:52;18.40;99.90
22682;DHT22;11508;50.856;4.380;2022-09-09T16:56:21;18.50;99.90
22682;DHT22;11508;50.856;4.380;2022-09-09T16:59:15;18.50;99.90
22682;DHT22;11508;50.856;4.380;2022-09-09T17:01:42;18.60;99.90
22682;DHT22;11508;50.856;4.380;2022-09-09T17:04:14;18.60;99.90
22682;DHT22;11508;50.856;4.380;2022-09-09T17:06:42;18.60;99.90
22682;DHT22;11508;50.856;4.380;2022-09-09T17:09:11;18.60;99.90
22682;DHT22;11508;50.856;4.380;2022-09-09T17:11:38;18.60;99.90
22682;DHT22;11508;50.856;4.380;2022-09-09T17:14:05;18.70;99.90
22682;DHT22;11508;50.856;4.380;2022-09-09T17:16:32;18.70;99.90
22682;DHT22;11508;50.856;4.380;2022-09-09T17:19:02;18.70;99.90
22682;DHT22;11508;50.856;4.380;2022-09-09T17:21:30;18.70;99.90
22682;DHT22;11508;50.856;4.380;2022-09-09T17:23:57;18.70;99.90
22682;DHT22;11508;50.856;4.380;2022-09-09T17:26:27;18.50;99.90
22682;DHT22;11508;50.856;4.380;2022-09-09T17:28:54;18.40;99.90
22682;DHT22;11508;50.856;4.380;2022-09-09T17:31:21;18.40;99.90
22682;DHT22;11508;50.856;4.380;2022-09-09T17:33:49;18.30;99.90
22682;DHT22;11508;50.856;4.380;2022-09-09T17:36:17;18.20;99.90
22682;DHT22;11508;50.856;4.380;2022-09-09T17:38:43;18.10;99.90
22682;DHT22;11508;50.856;4.380;2022-09-09T17:41:21;18.10;99.90
22682;DHT22;11508;50.856;4.380;2022-09-09T17:43:47;18.20;99.90
22682;DHT22;11508;50.856;4.380;2022-09-09T17:46:40;18.20;99.90
22682;DHT22;11508;50.856;4.380;2022-09-09T17:49:08;18.20;99.90
22682;DHT22;11508;50.856;4.380;2022-09-09T17:51:36;18.20;99.90
22682;DHT22;11508;50.856;4.380;2022-09-09T17:54:08;18.30;99.00
22682;DHT22;11508;50.856;4.380;2022-09-09T17:56:35;18.20;98.60
22682;DHT22;11508;50.856;4.380;2022-09-09T17:59:02;18.10;98.20
22682;DHT22;11508;50.856;4.380;2022-09-09T18:01:30;18.00;99.90
22682;DHT22;11508;50.856;4.380;2022-09-09T18:03:58;18.00;98.70
22682;DHT22;11508;50.856;4.380;2022-09-09T18:06:27;18.00;99.40
22682;DHT22;11508;50.856;4.380;2022-09-09T18:08:57;17.90;98.70
22682;DHT22;11508;50.856;4.380;2022-09-09T18:11:26;17.90;99.40
22682;DHT22;11508;50.856;4.380;2022-09-09T18:13:55;17.90;98.90
22682;DHT22;11508;50.856;4.380;2022-09-09T18:16:21;17.90;98.40
22682;DHT22;11508;50.856;4.380;2022-09-09T18:18:49;17.90;98.40
22682;DHT22;11508;50.856;4.380;2022-09-09T18:21:16;17.90;97.70